sensor_id;sensor_type;location;lat;lon;timestamp;pressure;altitude;pressure_sealevel;temperature;humidity
64632;BME280;58358;50.936;0.246;2023-02-01T00:01:09;101993.60;;;2.78;65.70
64632;BME280;58358;50.936;0.246;2023-02-01T00:03:33;101991.22;;;2.94;66.49
64632;BME280;58358;50.936;0.246;2023-02-01T00:05:59;101987.36;;;2.84;66.62
64632;BME280;58358;50.936;0.246;2023-02-01T00:08:24;101991.75;;;-0.33;70.65
64632;BME280;58358;50.936;0.246;2023-02-01T00:10:58;101981.95;;;2.12;68.03
64632;BME280;58358;50.936;0.246;2023-02-01T00:13:15;101979.23;;;3.34;65.16
64632;BME280;58358;50.936;0.246;2023-02-01T00:15:40;101980.88;;;3.07;65.29
64632;BME280;58358;50.936;0.246;2023-02-01T00:18:05;101979.76;;;3.31;63.23
64632;BME280;58358;50.936;0.246;2023-02-01T00:20:31;101985.24;;;1.84;66.39
64632;BME280;58358;50.936;0.246;2023-02-01T00:22:56;101991.67;;;3.10;66.45
64632;BME280;58358;50.936;0.246;2023-02-01T00:25:22;101990.84;;;3.26;65.55
64632;BME280;58358;50.936;0.246;2023-02-01T00:27:49;101993.20;;;2.69;69.26
64632;BME280;58358;50.936;0.246;2023-02-01T00:30:13;101992.19;;;2.56;68.48
64632;BME280;58358;50.936;0.246;2023-02-01T00:32:39;102003.28;;;1.74;71.54
64632;BME280;58358;50.936;0.246;2023-02-01T00:35:05;102000.56;;;2.83;69.57
64632;BME280;58358;50.936;0.246;2023-02-01T00:37:30;102001.63;;;2.53;69.08
64632;BME280;58358;50.936;0.246;2023-02-01T00:39:56;101999.36;;;2.40;71.35
64632;BME280;58358;50.936;0.246;2023-02-01T00:42:22;102005.19;;;2.84;69.61
64632;BME280;58358;50.936;0.246;2023-02-01T00:44:47;102004.85;;;3.33;68.47
64632;BME280;58358;50.936;0.246;2023-02-01T00:47:12;102002.95;;;2.36;72.12
64632;BME280;58358;50.936;0.246;2023-02-01T00:49:37;101998.13;;;2.05;72.72
64632;BME280;58358;50.936;0.246;2023-02-01T00:52:03;101995.42;;;2.27;73.65
64632;BME280;58358;50.936;0.246;2023-02-01T00:54:28;101992.64;;;2.19;74.82
64632;BME280;58358;50.936;0.246;2023-02-01T00:56:54;102001.08;;;2.56;73.02
64632;BME280;58358;50.936;0.246;2023-02-01T00:59:21;102002.20;;;1.72;75.81
64632;BME280;58358;50.936;0.246;2023-02-01T01:01:45;101999.56;;;1.35;77.46
64632;BME280;58358;50.936;0.246;2023-02-01T01:04:10;101992.18;;;2.21;75.62
64632;BME280;58358;50.936;0.246;2023-02-01T01:06:36;101986.45;;;1.93;75.99
64632;BME280;58358;50.936;0.246;2023-02-01T01:09:03;101986.69;;;1.66;77.76
64632;BME280;58358;50.936;0.246;2023-02-01T01:11:29;101985.29;;;1.92;79.60
64632;BME280;58358;50.936;0.246;2023-02-01T01:13:53;101986.48;;;1.60;78.56
64632;BME280;58358;50.936;0.246;2023-02-01T01:16:18;101976.36;;;1.98;76.52
64632;BME280;58358;50.936;0.246;2023-02-01T01:18:42;101977.33;;;1.85;77.58
64632;BME280;58358;50.936;0.246;2023-02-01T01:21:09;101979.89;;;1.93;79.27
64632;BME280;58358;50.936;0.246;2023-02-01T01:23:33;101981.11;;;2.09;76.66
64632;BME280;58358;50.936;0.246;2023-02-01T01:25:59;101977.04;;;2.11;77.55
64632;BME280;58358;50.936;0.246;2023-02-01T01:28:23;101970.15;;;3.01;73.18
64632;BME280;58358;50.936;0.246;2023-02-01T01:30:49;101978.30;;;1.40;77.53
64632;BME280;58358;50.936;0.246;2023-02-01T01:33:14;101976.28;;;1.73;78.02
64632;BME280;58358;50.936;0.246;2023-02-01T01:35:40;101965.17;;;0.91;77.94
64632;BME280;58358;50.936;0.246;2023-02-01T01:38:05;101968.34;;;2.28;76.57
64632;BME280;58358;50.936;0.246;2023-02-01T01:40:31;101965.43;;;2.39;76.89
64632;BME280;58358;50.936;0.246;2023-02-01T01:42:56;101966.42;;;1.36;80.61
64632;BME280;58358;50.936;0.246;2023-02-01T01:45:24;101967.57;;;0.73;81.42
64632;BME280;58358;50.936;0.246;2023-02-01T01:47:50;101967.73;;;0.72;83.05
64632;BME280;58358;50.936;0.246;2023-02-01T01:50:17;101972.37;;;1.87;79.49
64632;BME280;58358;50.936;0.246;2023-02-01T01:52:37;101971.43;;;1.15;80.47
64632;BME280;58358;50.936;0.246;2023-02-01T01:55:02;101974.80;;;1.10;80.79
64632;BME280;58358;50.936;0.246;2023-02-01T01:57:33;101974.52;;;1.48;80.04
64632;BME280;58358;50.936;0.246;2023-02-01T01:59:58;101974.11;;;2.12;76.74
64632;BME280;58358;50.936;0.246;2023-02-01T02:02:21;101975.80;;;2.23;77.49
64632;BME280;58358;50.936;0.246;2023-02-01T02:04:46;101973.53;;;1.31;80.71
64632;BME280;58358;50.936;0.246;2023-02-01T02:07:12;101971.62;;;1.86;78.62
64632;BME280;58358;50.936;0.246;2023-02-01T02:09:37;101967.61;;;2.00;78.80
64632;BME280;58358;50.936;0.246;2023-02-01T02:12:00;101970.66;;;1.25;80.44
64632;BME280;58358;50.936;0.246;2023-02-01T02:14:27;101969.16;;;1.59;78.21
64632;BME280;58358;50.936;0.246;2023-02-01T02:16:59;101963.98;;;2.26;78.09
64632;BME280;58358;50.936;0.246;2023-02-01T02:21:56;101961.92;;;3.03;73.23
64632;BME280;58358;50.936;0.246;2023-02-01T02:31:40;101962.69;;;2.35;75.74
64632;BME280;58358;50.936;0.246;2023-02-01T02:33:58;101959.67;;;1.67;76.02
64632;BME280;58358;50.936;0.246;2023-02-01T02:36:19;101949.78;;;2.50;75.59
64632;BME280;58358;50.936;0.246;2023-02-01T02:38:45;101950.75;;;1.33;79.77
64632;BME280;58358;50.936;0.246;2023-02-01T02:41:12;101952.97;;;1.48;80.54
64632;BME280;58358;50.936;0.246;2023-02-01T02:43:35;101951.40;;;1.93;79.70
64632;BME280;58358;50.936;0.246;2023-02-01T02:46:00;101952.68;;;1.39;81.59
64632;BME280;58358;50.936;0.246;2023-02-01T02:48:24;101949.31;;;0.96;84.11
64632;BME280;58358;50.936;0.246;2023-02-01T02:50:50;101952.88;;;1.03;81.91
64632;BME280;58358;50.936;0.246;2023-02-01T02:53:16;101949.14;;;1.50;82.92
64632;BME280;58358;50.936;0.246;2023-02-01T02:55:37;101951.20;;;1.39;82.07
64632;BME280;58358;50.936;0.246;2023-02-01T02:58:03;101946.10;;;0.63;85.50
64632;BME280;58358;50.936;0.246;2023-02-01T03:00:30;101949.95;;;1.47;84.39
64632;BME280;58358;50.936;0.246;2023-02-01T03:02:52;101946.76;;;1.11;84.02
64632;BME280;58358;50.936;0.246;2023-02-01T03:05:17;101938.74;;;0.68;86.45
64632;BME280;58358;50.936;0.246;2023-02-01T03:07:53;101945.84;;;1.29;84.83
64632;BME280;58358;50.936;0.246;2023-02-01T03:10:14;101943.94;;;1.45;84.98
64632;BME280;58358;50.936;0.246;2023-02-01T03:12:34;101945.97;;;1.81;82.93
64632;BME280;58358;50.936;0.246;2023-02-01T03:15:00;101945.65;;;1.65;83.87
64632;BME280;58358;50.936;0.246;2023-02-01T03:17:28;101940.42;;;1.77;83.15
64632;BME280;58358;50.936;0.246;2023-02-01T03:19:51;101943.17;;;1.86;80.99
64632;BME280;58358;50.936;0.246;2023-02-01T03:22:14;101944.78;;;2.27;80.17
64632;BME280;58358;50.936;0.246;2023-02-01T03:24:41;101946.14;;;0.85;85.02
64632;BME280;58358;50.936;0.246;2023-02-01T03:27:08;101948.07;;;2.02;82.09
64632;BME280;58358;50.936;0.246;2023-02-01T03:29:37;101946.71;;;2.28;80.73
64632;BME280;58358;50.936;0.246;2023-02-01T03:31:55;101947.47;;;2.31;79.85
64632;BME280;58358;50.936;0.246;2023-02-01T03:34:22;101944.83;;;2.23;80.11
64632;BME280;58358;50.936;0.246;2023-02-01T03:36:50;101947.52;;;2.30;80.24
64632;BME280;58358;50.936;0.246;2023-02-01T03:39:16;101941.62;;;2.52;78.52
64632;BME280;58358;50.936;0.246;2023-02-01T03:41:41;101938.17;;;2.25;77.48
64632;BME280;58358;50.936;0.246;2023-02-01T03:44:06;101943.08;;;2.28;77.52
64632;BME280;58358;50.936;0.246;2023-02-01T03:46:33;101944.07;;;2.37;76.56
64632;BME280;58358;50.936;0.246;2023-02-01T03:48:53;101946.87;;;3.17;74.63
64632;BME280;58358;50.936;0.246;2023-02-01T03:51:20;101956.65;;;2.38;76.82
64632;BME280;58358;50.936;0.246;2023-02-01T03:53:45;101962.62;;;2.30;79.37
64632;BME280;58358;50.936;0.246;2023-02-01T03:56:10;101963.68;;;1.94;79.11
64632;BME280;58358;50.936;0.246;2023-02-01T03:58:35;101960.24;;;1.18;81.68
64632;BME280;58358;50.936;0.246;2023-02-01T04:01:00;101949.83;;;1.46;82.09
64632;BME280;58358;50.936;0.246;2023-02-01T04:03:27;101951.78;;;1.68;80.81
64632;BME280;58358;50.936;0.246;2023-02-01T04:05:52;101947.38;;;1.88;80.19
64632;BME280;58358;50.936;0.246;2023-02-01T04:08:18;101948.31;;;1.50;81.50
64632;BME280;58358;50.936;0.246;2023-02-01T04:10:42;101952.56;;;1.91;80.22
64632;BME280;58358;50.936;0.246;2023-02-01T04:13:08;101944.98;;;2.57;77.24
64632;BME280;58358;50.936;0.246;2023-02-01T04:15:33;101957.33;;;1.83;79.19
64632;BME280;58358;50.936;0.246;2023-02-01T04:17:59;101956.02;;;1.74;81.47
64632;BME280;58358;50.936;0.246;2023-02-01T04:20:24;101949.97;;;1.59;82.69
64632;BME280;58358;50.936;0.246;2023-02-01T04:22:50;101951.55;;;1.42;81.63
64632;BME280;58358;50.936;0.246;2023-02-01T04:25:15;101954.38;;;1.39;81.63
64632;BME280;58358;50.936;0.246;2023-02-01T04:27:40;101950.85;;;1.22;82.59
64632;BME280;58358;50.936;0.246;2023-02-01T04:30:07;101946.67;;;2.15;81.17
64632;BME280;58358;50.936;0.246;2023-02-01T04:32:32;101950.33;;;2.51;78.08
64632;BME280;58358;50.936;0.246;2023-02-01T04:34:57;101953.79;;;1.72;78.43
64632;BME280;58358;50.936;0.246;2023-02-01T04:37:23;101953.02;;;1.80;78.43
64632;BME280;58358;50.936;0.246;2023-02-01T04:39:48;101950.35;;;1.88;78.66
64632;BME280;58358;50.936;0.246;2023-02-01T04:42:14;101946.44;;;1.75;78.56
64632;BME280;58358;50.936;0.246;2023-02-01T04:44:39;101940.29;;;3.02;74.96
64632;BME280;58358;50.936;0.246;2023-02-01T04:47:05;101944.16;;;2.89;73.60
64632;BME280;58358;50.936;0.246;2023-02-01T04:49:31;101946.46;;;3.16;72.77
64632;BME280;58358;50.936;0.246;2023-02-01T04:51:56;101941.19;;;2.82;73.75
64632;BME280;58358;50.936;0.246;2023-02-01T04:54:22;101942.72;;;2.38;76.03
64632;BME280;58358;50.936;0.246;2023-02-01T04:56:47;101946.64;;;2.24;76.62
64632;BME280;58358;50.936;0.246;2023-02-01T04:59:12;101942.35;;;2.45;76.06
64632;BME280;58358;50.936;0.246;2023-02-01T05:01:38;101944.78;;;2.37;76.55
64632;BME280;58358;50.936;0.246;2023-02-01T05:04:04;101945.61;;;2.14;78.51
64632;BME280;58358;50.936;0.246;2023-02-01T05:06:29;101951.95;;;2.03;78.79
64632;BME280;58358;50.936;0.246;2023-02-01T05:08:55;101947.77;;;2.58;76.16
64632;BME280;58358;50.936;0.246;2023-02-01T05:11:21;101949.24;;;1.58;80.05
64632;BME280;58358;50.936;0.246;2023-02-01T05:13:45;101950.11;;;1.16;81.48
64632;BME280;58358;50.936;0.246;2023-02-01T05:16:10;101955.02;;;2.27;78.28
64632;BME280;58358;50.936;0.246;2023-02-01T05:18:37;101955.62;;;2.51;76.09
64632;BME280;58358;50.936;0.246;2023-02-01T05:21:01;101956.14;;;2.88;74.41
64632;BME280;58358;50.936;0.246;2023-02-01T05:23:27;101966.55;;;1.88;78.79
64632;BME280;58358;50.936;0.246;2023-02-01T05:25:52;101970.97;;;2.05;77.45
64632;BME280;58358;50.936;0.246;2023-02-01T05:28:17;101962.27;;;2.53;74.99
64632;BME280;58358;50.936;0.246;2023-02-01T05:30:43;101962.33;;;3.04;73.89
64632;BME280;58358;50.936;0.246;2023-02-01T05:33:09;101961.14;;;2.50;75.85
64632;BME280;58358;50.936;0.246;2023-02-01T05:35:35;101962.01;;;2.85;74.08
64632;BME280;58358;50.936;0.246;2023-02-01T05:38:00;101970.31;;;1.36;78.68
64632;BME280;58358;50.936;0.246;2023-02-01T05:40:26;101977.84;;;1.64;78.22
64632;BME280;58358;50.936;0.246;2023-02-01T05:42:52;101972.65;;;1.50;80.45
64632;BME280;58358;50.936;0.246;2023-02-01T05:45:16;101970.07;;;2.10;78.46
64632;BME280;58358;50.936;0.246;2023-02-01T05:47:42;101973.23;;;1.17;80.71
64632;BME280;58358;50.936;0.246;2023-02-01T05:50:07;101974.90;;;0.99;82.77
64632;BME280;58358;50.936;0.246;2023-02-01T05:52:32;101975.44;;;1.26;81.69
64632;BME280;58358;50.936;0.246;2023-02-01T05:54:58;101970.13;;;1.32;81.57
64632;BME280;58358;50.936;0.246;2023-02-01T05:57:23;101968.31;;;1.09;81.74
64632;BME280;58358;50.936;0.246;2023-02-01T05:59:48;101964.83;;;1.07;81.22
64632;BME280;58358;50.936;0.246;2023-02-01T06:02:13;101964.62;;;2.39;75.89
64632;BME280;58358;50.936;0.246;2023-02-01T06:04:39;101971.04;;;2.28;73.86
64632;BME280;58358;50.936;0.246;2023-02-01T06:07:05;101961.43;;;3.05;71.36
64632;BME280;58358;50.936;0.246;2023-02-01T06:09:30;101960.22;;;3.37;71.25
64632;BME280;58358;50.936;0.246;2023-02-01T06:11:56;101960.94;;;3.46;70.55
64632;BME280;58358;50.936;0.246;2023-02-01T06:14:22;101961.34;;;2.97;71.71
64632;BME280;58358;50.936;0.246;2023-02-01T06:16:47;101963.42;;;2.68;74.95
64632;BME280;58358;50.936;0.246;2023-02-01T06:19:13;101973.33;;;1.63;77.32
64632;BME280;58358;50.936;0.246;2023-02-01T06:21:38;101969.75;;;1.95;77.01
64632;BME280;58358;50.936;0.246;2023-02-01T06:24:04;101963.60;;;2.83;72.43
64632;BME280;58358;50.936;0.246;2023-02-01T06:26:29;101963.58;;;3.07;72.83
64632;BME280;58358;50.936;0.246;2023-02-01T06:28:56;101977.30;;;1.61;77.62
64632;BME280;58358;50.936;0.246;2023-02-01T06:31:22;101979.75;;;2.30;76.61
64632;BME280;58358;50.936;0.246;2023-02-01T06:33:49;101976.91;;;2.96;74.41
64632;BME280;58358;50.936;0.246;2023-02-01T06:36:13;101980.50;;;3.31;73.14
64632;BME280;58358;50.936;0.246;2023-02-01T06:38:38;101981.02;;;3.40;71.52
64632;BME280;58358;50.936;0.246;2023-02-01T06:41:04;101981.12;;;2.98;74.57
64632;BME280;58358;50.936;0.246;2023-02-01T06:43:30;101979.55;;;3.07;71.15
64632;BME280;58358;50.936;0.246;2023-02-01T06:46:00;101974.15;;;3.26;72.95
64632;BME280;58358;50.936;0.246;2023-02-01T06:48:21;101971.72;;;2.79;74.41
64632;BME280;58358;50.936;0.246;2023-02-01T06:50:46;101974.54;;;2.28;77.01
64632;BME280;58358;50.936;0.246;2023-02-01T06:53:12;101968.09;;;1.70;79.85
64632;BME280;58358;50.936;0.246;2023-02-01T06:55:37;101961.40;;;1.95;77.90
64632;BME280;58358;50.936;0.246;2023-02-01T06:58:03;101957.64;;;3.03;75.37
64632;BME280;58358;50.936;0.246;2023-02-01T07:00:28;101963.02;;;2.83;73.75
64632;BME280;58358;50.936;0.246;2023-02-01T07:02:53;101964.84;;;2.80;73.60
64632;BME280;58358;50.936;0.246;2023-02-01T07:05:19;101964.61;;;4.04;71.79
64632;BME280;58358;50.936;0.246;2023-02-01T07:07:45;101960.93;;;3.51;70.24
64632;BME280;58358;50.936;0.246;2023-02-01T07:10:12;101953.95;;;3.19;73.00
64632;BME280;58358;50.936;0.246;2023-02-01T07:12:36;101951.53;;;3.01;74.94
64632;BME280;58358;50.936;0.246;2023-02-01T07:15:02;101963.21;;;3.60;73.66
64632;BME280;58358;50.936;0.246;2023-02-01T07:17:27;101965.57;;;3.54;73.40
64632;BME280;58358;50.936;0.246;2023-02-01T07:19:53;101965.38;;;2.94;76.68
64632;BME280;58358;50.936;0.246;2023-02-01T07:22:18;101968.43;;;3.57;74.42
64632;BME280;58358;50.936;0.246;2023-02-01T07:24:43;101973.92;;;3.02;76.41
64632;BME280;58358;50.936;0.246;2023-02-01T07:27:08;101976.10;;;3.05;76.67
64632;BME280;58358;50.936;0.246;2023-02-01T07:29:34;101988.15;;;2.68;77.30
64632;BME280;58358;50.936;0.246;2023-02-01T07:32:00;101995.37;;;2.15;80.82
64632;BME280;58358;50.936;0.246;2023-02-01T07:34:26;102001.56;;;2.04;82.75
64632;BME280;58358;50.936;0.246;2023-02-01T07:36:51;102004.73;;;2.06;82.45
64632;BME280;58358;50.936;0.246;2023-02-01T07:39:17;102014.26;;;2.09;84.56
64632;BME280;58358;50.936;0.246;2023-02-01T07:41:42;102023.20;;;2.19;83.11
64632;BME280;58358;50.936;0.246;2023-02-01T07:44:07;102027.77;;;1.84;82.45
64632;BME280;58358;50.936;0.246;2023-02-01T07:46:34;102026.22;;;2.34;81.47
64632;BME280;58358;50.936;0.246;2023-02-01T07:48:58;102024.19;;;2.07;83.26
64632;BME280;58358;50.936;0.246;2023-02-01T07:51:24;102024.18;;;2.36;82.14
64632;BME280;58358;50.936;0.246;2023-02-01T07:53:49;102027.67;;;2.86;81.07
64632;BME280;58358;50.936;0.246;2023-02-01T07:56:17;102024.17;;;3.39;78.27
64632;BME280;58358;50.936;0.246;2023-02-01T07:58:41;102038.75;;;2.71;79.60
64632;BME280;58358;50.936;0.246;2023-02-01T08:01:13;102034.56;;;3.16;80.67
64632;BME280;58358;50.936;0.246;2023-02-01T08:03:34;102030.18;;;2.98;80.54
64632;BME280;58358;50.936;0.246;2023-02-01T08:05:57;102030.97;;;2.95;81.04
64632;BME280;58358;50.936;0.246;2023-02-01T08:08:23;102026.09;;;2.44;81.01
64632;BME280;58358;50.936;0.246;2023-02-01T08:10:49;102023.04;;;3.00;79.50
64632;BME280;58358;50.936;0.246;2023-02-01T08:13:14;102031.97;;;3.67;78.40
64632;BME280;58358;50.936;0.246;2023-02-01T08:15:39;102026.40;;;3.20;78.88
64632;BME280;58358;50.936;0.246;2023-02-01T08:18:05;102034.14;;;3.98;76.67
64632;BME280;58358;50.936;0.246;2023-02-01T08:20:30;102028.34;;;3.22;78.63
64632;BME280;58358;50.936;0.246;2023-02-01T08:22:55;102034.38;;;3.90;75.70
64632;BME280;58358;50.936;0.246;2023-02-01T08:25:22;102041.51;;;2.69;79.59
64632;BME280;58358;50.936;0.246;2023-02-01T08:27:46;102047.86;;;2.15;81.05
64632;BME280;58358;50.936;0.246;2023-02-01T08:30:12;102041.16;;;2.98;79.99
64632;BME280;58358;50.936;0.246;2023-02-01T08:32:37;102036.23;;;2.92;79.03
64632;BME280;58358;50.936;0.246;2023-02-01T08:35:03;102035.92;;;2.59;80.73
64632;BME280;58358;50.936;0.246;2023-02-01T08:37:28;102033.32;;;2.15;83.40
64632;BME280;58358;50.936;0.246;2023-02-01T08:39:53;102029.06;;;2.35;83.12
64632;BME280;58358;50.936;0.246;2023-02-01T08:42:19;102018.55;;;3.32;80.50
64632;BME280;58358;50.936;0.246;2023-02-01T08:44:45;102021.42;;;3.57;79.68
64632;BME280;58358;50.936;0.246;2023-02-01T08:47:11;102025.88;;;3.18;80.22
64632;BME280;58358;50.936;0.246;2023-02-01T08:49:36;102015.97;;;3.81;78.61
64632;BME280;58358;50.936;0.246;2023-02-01T08:52:01;102014.30;;;3.65;78.25
64632;BME280;58358;50.936;0.246;2023-02-01T08:54:27;102010.69;;;3.46;78.84
64632;BME280;58358;50.936;0.246;2023-02-01T08:56:52;102016.51;;;2.77;80.43
64632;BME280;58358;50.936;0.246;2023-02-01T08:59:17;102017.80;;;3.23;81.08
64632;BME280;58358;50.936;0.246;2023-02-01T09:01:43;102016.69;;;3.13;81.45
64632;BME280;58358;50.936;0.246;2023-02-01T09:04:08;102013.22;;;3.05;81.90
64632;BME280;58358;50.936;0.246;2023-02-01T09:06:34;102014.42;;;3.10;81.60
64632;BME280;58358;50.936;0.246;2023-02-01T09:08:59;102017.50;;;2.56;82.45
64632;BME280;58358;50.936;0.246;2023-02-01T09:11:25;102008.86;;;3.04;80.28
64632;BME280;58358;50.936;0.246;2023-02-01T09:13:51;102015.33;;;3.15;82.11
64632;BME280;58358;50.936;0.246;2023-02-01T09:16:16;102018.43;;;2.85;82.97
64632;BME280;58358;50.936;0.246;2023-02-01T09:18:41;102025.38;;;3.15;82.05
64632;BME280;58358;50.936;0.246;2023-02-01T09:21:08;102027.83;;;3.12;83.74
64632;BME280;58358;50.936;0.246;2023-02-01T09:23:32;102023.45;;;2.76;84.12
64632;BME280;58358;50.936;0.246;2023-02-01T09:25:59;102020.06;;;3.39;83.02
64632;BME280;58358;50.936;0.246;2023-02-01T09:28:24;102031.66;;;2.50;84.36
64632;BME280;58358;50.936;0.246;2023-02-01T09:30:49;102032.65;;;2.90;85.02
64632;BME280;58358;50.936;0.246;2023-02-01T09:33:14;102023.03;;;2.93;83.72
64632;BME280;58358;50.936;0.246;2023-02-01T09:35:40;102020.10;;;3.51;81.61
64632;BME280;58358;50.936;0.246;2023-02-01T09:38:05;102026.13;;;3.06;82.67
64632;BME280;58358;50.936;0.246;2023-02-01T09:40:31;102024.06;;;2.45;84.89
64632;BME280;58358;50.936;0.246;2023-02-01T09:43:10;102015.22;;;3.38;81.95
64632;BME280;58358;50.936;0.246;2023-02-01T09:45:25;102021.06;;;2.89;85.00
64632;BME280;58358;50.936;0.246;2023-02-01T09:47:51;102011.87;;;3.01;83.63
64632;BME280;58358;50.936;0.246;2023-02-01T09:50:17;102012.71;;;3.26;82.95
64632;BME280;58358;50.936;0.246;2023-02-01T09:52:42;102016.67;;;3.43;81.97
64632;BME280;58358;50.936;0.246;2023-02-01T09:55:06;102022.10;;;3.17;82.44
64632;BME280;58358;50.936;0.246;2023-02-01T09:57:40;102015.65;;;3.45;81.61
64632;BME280;58358;50.936;0.246;2023-02-01T09:59:59;102019.36;;;4.32;77.38
64632;BME280;58358;50.936;0.246;2023-02-01T10:02:24;102019.79;;;4.23;77.67
64632;BME280;58358;50.936;0.246;2023-02-01T10:04:46;102023.43;;;4.09;78.75
64632;BME280;58358;50.936;0.246;2023-02-01T10:07:23;102023.50;;;3.65;78.66
64632;BME280;58358;50.936;0.246;2023-02-01T10:09:52;102034.07;;;4.61;76.63
64632;BME280;58358;50.936;0.246;2023-02-01T10:12:21;102045.92;;;4.66;75.25
64632;BME280;58358;50.936;0.246;2023-02-01T10:14:40;102050.38;;;4.24;77.03
64632;BME280;58358;50.936;0.246;2023-02-01T10:16:58;102054.27;;;4.23;77.99
64632;BME280;58358;50.936;0.246;2023-02-01T10:19:29;102054.56;;;4.80;75.15
64632;BME280;58358;50.936;0.246;2023-02-01T10:21:54;102045.47;;;3.92;77.64
64632;BME280;58358;50.936;0.246;2023-02-01T10:24:22;102045.35;;;4.00;78.76
64632;BME280;58358;50.936;0.246;2023-02-01T10:26:39;102047.83;;;3.68;81.05
64632;BME280;58358;50.936;0.246;2023-02-01T10:29:04;102036.97;;;3.83;79.03
64632;BME280;58358;50.936;0.246;2023-02-01T10:31:30;102048.17;;;3.76;79.56
64632;BME280;58358;50.936;0.246;2023-02-01T10:33:57;102031.40;;;3.75;81.21
64632;BME280;58358;50.936;0.246;2023-02-01T10:36:23;102042.22;;;3.94;81.23
64632;BME280;58358;50.936;0.246;2023-02-01T10:38:46;102031.07;;;3.91;79.53
64632;BME280;58358;50.936;0.246;2023-02-01T10:41:13;102039.97;;;4.25;79.60
64632;BME280;58358;50.936;0.246;2023-02-01T10:43:37;102036.77;;;3.77;80.36
64632;BME280;58358;50.936;0.246;2023-02-01T10:46:02;102034.82;;;3.58;81.24
64632;BME280;58358;50.936;0.246;2023-02-01T10:48:28;102025.61;;;4.01;79.87
64632;BME280;58358;50.936;0.246;2023-02-01T10:50:58;102034.23;;;4.05;79.53
64632;BME280;58358;50.936;0.246;2023-02-01T10:53:23;102029.95;;;4.18;79.00
64632;BME280;58358;50.936;0.246;2023-02-01T10:55:50;102028.25;;;3.52;80.60
64632;BME280;58358;50.936;0.246;2023-02-01T10:58:15;102017.55;;;3.90;81.57
64632;BME280;58358;50.936;0.246;2023-02-01T11:00:44;102017.14;;;4.19;80.32
64632;BME280;58358;50.936;0.246;2023-02-01T11:05:27;102011.21;;;3.31;82.05
64632;BME280;58358;50.936;0.246;2023-02-01T11:07:54;102012.03;;;4.10;80.76
64632;BME280;58358;50.936;0.246;2023-02-01T11:15:20;102001.47;;;4.21;81.13
64632;BME280;58358;50.936;0.246;2023-02-01T11:17:38;102001.60;;;4.29;79.25
64632;BME280;58358;50.936;0.246;2023-02-01T11:20:02;102002.49;;;4.28;79.51
64632;BME280;58358;50.936;0.246;2023-02-01T11:22:28;102001.88;;;4.03;80.24
64632;BME280;58358;50.936;0.246;2023-02-01T11:24:52;101985.01;;;4.30;79.67
64632;BME280;58358;50.936;0.246;2023-02-01T11:27:19;101992.24;;;4.24;80.24
64632;BME280;58358;50.936;0.246;2023-02-01T11:29:43;101991.49;;;4.23;80.33
64632;BME280;58358;50.936;0.246;2023-02-01T11:32:09;101988.39;;;4.18;81.19
64632;BME280;58358;50.936;0.246;2023-02-01T11:34:39;101987.53;;;4.01;81.05
64632;BME280;58358;50.936;0.246;2023-02-01T11:37:00;101985.96;;;4.17;80.34
64632;BME280;58358;50.936;0.246;2023-02-01T11:39:26;101975.80;;;4.26;80.17
64632;BME280;58358;50.936;0.246;2023-02-01T11:41:58;101971.75;;;4.85;78.09
64632;BME280;58358;50.936;0.246;2023-02-01T11:44:21;101973.45;;;4.77;77.96
64632;BME280;58358;50.936;0.246;2023-02-01T11:46:40;101970.74;;;5.67;76.16
64632;BME280;58358;50.936;0.246;2023-02-01T11:49:14;101960.68;;;5.09;76.18
64632;BME280;58358;50.936;0.246;2023-02-01T11:51:44;101965.52;;;5.73;74.33
64632;BME280;58358;50.936;0.246;2023-02-01T11:54:10;101961.09;;;5.47;74.36
64632;BME280;58358;50.936;0.246;2023-02-01T11:56:28;101957.68;;;5.39;76.46
64632;BME280;58358;50.936;0.246;2023-02-01T11:59:08;101960.92;;;5.25;75.40
64632;BME280;58358;50.936;0.246;2023-02-01T12:01:26;101958.58;;;5.38;73.94
64632;BME280;58358;50.936;0.246;2023-02-01T12:03:51;101957.64;;;5.71;74.23
64632;BME280;58358;50.936;0.246;2023-02-01T12:06:08;101960.72;;;4.80;75.78
64632;BME280;58358;50.936;0.246;2023-02-01T12:11:10;101966.95;;;4.55;77.09
64632;BME280;58358;50.936;0.246;2023-02-01T12:13:32;101950.94;;;5.48;76.10
64632;BME280;58358;50.936;0.246;2023-02-01T12:15:56;101960.60;;;4.96;76.44
64632;BME280;58358;50.936;0.246;2023-02-01T12:23:20;101943.71;;;5.22;75.58
64632;BME280;58358;50.936;0.246;2023-02-01T12:25:43;101950.76;;;5.15;75.71
64632;BME280;58358;50.936;0.246;2023-02-01T12:32:56;101946.53;;;5.90;72.93
64632;BME280;58358;50.936;0.246;2023-02-01T12:37:50;101946.38;;;4.70;77.17
64632;BME280;58358;50.936;0.246;2023-02-01T12:40:10;101931.79;;;4.74;78.28
64632;BME280;58358;50.936;0.246;2023-02-01T12:42:31;101931.80;;;4.79;78.05
64632;BME280;58358;50.936;0.246;2023-02-01T12:44:59;101923.91;;;5.17;77.38
64632;BME280;58358;50.936;0.246;2023-02-01T12:47:22;101922.40;;;5.26;77.82
64632;BME280;58358;50.936;0.246;2023-02-01T12:49:48;101936.65;;;4.68;79.28
64632;BME280;58358;50.936;0.246;2023-02-01T12:52:12;101924.90;;;4.75;78.87
64632;BME280;58358;50.936;0.246;2023-02-01T12:54:39;101915.48;;;5.21;77.66
64632;BME280;58358;50.936;0.246;2023-02-01T12:57:01;101921.73;;;5.35;76.48
64632;BME280;58358;50.936;0.246;2023-02-01T12:59:30;101922.15;;;5.26;76.12
64632;BME280;58358;50.936;0.246;2023-02-01T13:01:54;101914.56;;;5.25;76.45
64632;BME280;58358;50.936;0.246;2023-02-01T13:04:19;101915.00;;;5.96;73.76
64632;BME280;58358;50.936;0.246;2023-02-01T13:06:45;101907.48;;;5.87;73.65
64632;BME280;58358;50.936;0.246;2023-02-01T13:09:14;101906.34;;;6.40;71.32
64632;BME280;58358;50.936;0.246;2023-02-01T13:11:36;101906.29;;;6.16;72.68
64632;BME280;58358;50.936;0.246;2023-02-01T13:14:03;101898.87;;;5.90;73.39
64632;BME280;58358;50.936;0.246;2023-02-01T13:16:27;101905.55;;;5.89;72.72
64632;BME280;58358;50.936;0.246;2023-02-01T13:18:50;101907.00;;;6.65;71.02
64632;BME280;58358;50.936;0.246;2023-02-01T13:21:17;101898.63;;;6.30;70.72